Aviation Digital Data Service (ADDS)

Output produced by METARs form (0901 UTC 26 January 2020)
found at http://www.aviationweather.gov/metar/data/
 
METAR text: NGFU 260900Z 34006KT 9999 FEW018TCU SCT020 28/25 Q1008
Conditions at: NGFU (FUNAFUTI TUVALU , FJ) observed 0900 UTC 26 January 2020
Temperature: 28.0°C (82°F)
Dewpoint: 25.0°C (77°F) [RH = 84%]
Pressure (altimeter): 29.76 inches Hg (1008.0 mb)
Winds: from the NNW (340 degrees) at 7 MPH (6 knots; 3.1 m/s)
Visibility: 6 or more miles (10+ km)
Ceiling: at least 12,000 feet AGL
Clouds: few clouds at 1800 feet AGL
scattered clouds at 2000 feet AGL
Weather: no significant weather observed at this time

METAR text: NGFU 270800Z 34003KT 9999 SCT018TCU BKN110 29/25 Q1007
Conditions at: NGFU (FUNAFUTI TUVALU , FJ) observed 0800 UTC 26 January 2020
Temperature: 29.0°C (84°F)
Dewpoint: 25.0°C (77°F) [RH = 79%]
Pressure (altimeter): 29.73 inches Hg (1007.0 mb)
Winds: from the NNW (340 degrees) at 3 MPH (3 knots; 1.5 m/s)
Visibility: 6 or more miles (10+ km)
Ceiling: 11000 feet AGL
Clouds: scattered clouds at 1800 feet AGL
broken clouds at 11000 feet AGL
Weather: no significant weather observed at this time

METAR text: NGFU 260700Z 31004KT 9999 SCT018TCU BKN110 28/25 Q1007
Conditions at: NGFU (FUNAFUTI TUVALU , FJ) observed 0700 UTC 26 January 2020
Temperature: 28.0°C (82°F)
Dewpoint: 25.0°C (77°F) [RH = 84%]
Pressure (altimeter): 29.73 inches Hg (1007.0 mb)
Winds: from the NW (310 degrees) at 5 MPH (4 knots; 2.1 m/s)
Visibility: 6 or more miles (10+ km)
Ceiling: 11000 feet AGL
Clouds: scattered clouds at 1800 feet AGL
broken clouds at 11000 feet AGL
Weather: no significant weather observed at this time

METAR text: NGFU 260600Z 31006KT 9999 SCT018TCU BKN300 29/25 Q1006
Conditions at: NGFU (FUNAFUTI TUVALU , FJ) observed 0600 UTC 26 January 2020
Temperature: 29.0°C (84°F)
Dewpoint: 25.0°C (77°F) [RH = 79%]
Pressure (altimeter): 29.70 inches Hg (1006.0 mb)
Winds: from the NW (310 degrees) at 7 MPH (6 knots; 3.1 m/s)
Visibility: 6 or more miles (10+ km)
Ceiling: 30000 feet AGL
Clouds: scattered clouds at 1800 feet AGL
broken clouds at 30000 feet AGL
Weather: no significant weather observed at this time

METAR text: NGFU 260500Z 30007KT 9999 SCT018TCU BKN110 29/25 Q1006
Conditions at: NGFU (FUNAFUTI TUVALU , FJ) observed 0500 UTC 26 January 2020
Temperature: 29.0°C (84°F)
Dewpoint: 25.0°C (77°F) [RH = 79%]
Pressure (altimeter): 29.70 inches Hg (1006.0 mb)
Winds: from the WNW (300 degrees) at 8 MPH (7 knots; 3.6 m/s)
Visibility: 6 or more miles (10+ km)
Ceiling: 11000 feet AGL
Clouds: scattered clouds at 1800 feet AGL
broken clouds at 11000 feet AGL
Weather: no significant weather observed at this time

METAR text: NGFU 260400Z 32009KT 9999 SCT018TCU BKN110 29/25 Q1005
Conditions at: NGFU (FUNAFUTI TUVALU , FJ) observed 0400 UTC 26 January 2020
Temperature: 29.0°C (84°F)
Dewpoint: 25.0°C (77°F) [RH = 79%]
Pressure (altimeter): 29.68 inches Hg (1005.0 mb)
Winds: from the NW (320 degrees) at 10 MPH (9 knots; 4.6 m/s)
Visibility: 6 or more miles (10+ km)
Ceiling: 11000 feet AGL
Clouds: scattered clouds at 1800 feet AGL
broken clouds at 11000 feet AGL
Weather: no significant weather observed at this time

METAR text: NGFU 260300Z 33007KT 9999 SCT019TCU BKN110 29/25 Q1006
Conditions at: NGFU (FUNAFUTI TUVALU , FJ) observed 0300 UTC 26 January 2020
Temperature: 29.0°C (84°F)
Dewpoint: 25.0°C (77°F) [RH = 79%]
Pressure (altimeter): 29.70 inches Hg (1006.0 mb)
Winds: from the NNW (330 degrees) at 8 MPH (7 knots; 3.6 m/s)
Visibility: 6 or more miles (10+ km)
Ceiling: 11000 feet AGL
Clouds: scattered clouds at 1900 feet AGL
broken clouds at 11000 feet AGL
Weather: no significant weather observed at this time

METAR text: NGFU 260200Z 34009KT 9999 FEW017CB SCT018TCU BKN110 29/26 Q1007
Conditions at: NGFU (FUNAFUTI TUVALU , FJ) observed 0200 UTC 26 January 2020
Temperature: 29.0°C (84°F)
Dewpoint: 26.0°C (79°F) [RH = 84%]
Pressure (altimeter): 29.73 inches Hg (1007.0 mb)
Winds: from the NNW (340 degrees) at 10 MPH (9 knots; 4.6 m/s)
Visibility: 6 or more miles (10+ km)
Ceiling: 11000 feet AGL
Clouds: few clouds at 1700 feet AGL
scattered clouds at 1800 feet AGL
broken clouds at 11000 feet AGL
Weather: no significant weather observed at this time

METAR text: NGFU 260100Z 35012KT 9999 FW017CB SCT018TCU BKN110 29/25 Q1008
Conditions at: NGFU (FUNAFUTI TUVALU , FJ) observed 0100 UTC 26 January 2020
Temperature: 29.0°C (84°F)
Dewpoint: 25.0°C (77°F) [RH = 79%]
Pressure (altimeter): 29.76 inches Hg (1008.0 mb)
Winds: from the N (350 degrees) at 14 MPH (12 knots; 6.2 m/s)
Visibility: 6 or more miles (10+ km)
Ceiling: 11000 feet AGL
Clouds: scattered clouds at 1800 feet AGL
broken clouds at 11000 feet AGL
Weather: no significant weather observed at this time

METAR text: NGFU 260000Z 01011KT 9999 VCSH SCT017CB FEW018TCU OVC110 28/25 Q1008
Conditions at: NGFU (FUNAFUTI TUVALU , FJ) observed 0000 UTC 26 January 2020
Temperature: 28.0°C (82°F)
Dewpoint: 25.0°C (77°F) [RH = 84%]
Pressure (altimeter): 29.76 inches Hg (1008.0 mb)
Winds: from the N (10 degrees) at 13 MPH (11 knots; 5.7 m/s)
Visibility: 6 or more miles (10+ km)
Ceiling: 11000 feet AGL
Clouds: scattered clouds at 1700 feet AGL
few clouds at 1800 feet AGL
overcast cloud deck at 11000 feet AGL
Weather: VCSH  (showers in vicinity)

METAR text: NGFU 252300Z 36009KT 9999 SCT018CB FEW019TCU BKN110 30/27 Q1009
Conditions at: NGFU (FUNAFUTI TUVALU , FJ) observed 2300 UTC 25 January 2020
Temperature: 30.0°C (86°F)
Dewpoint: 27.0°C (81°F) [RH = 84%]
Pressure (altimeter): 29.79 inches Hg (1009.0 mb)
Winds: from the N (360 degrees) at 10 MPH (9 knots; 4.6 m/s)
Visibility: 6 or more miles (10+ km)
Ceiling: 11000 feet AGL
Clouds: scattered clouds at 1800 feet AGL
few clouds at 1900 feet AGL
broken clouds at 11000 feet AGL
Weather: no significant weather observed at this time

METAR text: NGFU 252200Z 34003KT 9999 SCT018CB FEW019TCU BKN110 30/24 Q1009
Conditions at: NGFU (FUNAFUTI TUVALU , FJ) observed 2200 UTC 25 January 2020
Temperature: 30.0°C (86°F)
Dewpoint: 24.0°C (75°F) [RH = 70%]
Pressure (altimeter): 29.79 inches Hg (1009.0 mb)
Winds: from the NNW (340 degrees) at 3 MPH (3 knots; 1.5 m/s)
Visibility: 6 or more miles (10+ km)
Ceiling: 11000 feet AGL
Clouds: scattered clouds at 1800 feet AGL
few clouds at 1900 feet AGL
broken clouds at 11000 feet AGL
Weather: no significant weather observed at this time

METAR text: NGFU 252100Z VRB02KT 9999 SCT019TCU BKN110 29/25 Q1009
Conditions at: NGFU (FUNAFUTI TUVALU , FJ) observed 2100 UTC 25 January 2020
Temperature: 29.0°C (84°F)
Dewpoint: 25.0°C (77°F) [RH = 79%]
Pressure (altimeter): 29.79 inches Hg (1009.0 mb)
Winds: variable direction winds at 2 MPH (2 knots; 1.0 m/s)
Visibility: 6 or more miles (10+ km)
Ceiling: 11000 feet AGL
Clouds: scattered clouds at 1900 feet AGL
broken clouds at 11000 feet AGL
Weather: no significant weather observed at this time

METAR text: NGFU 252000Z 00000KT 9999 SCT018TCU BKN110 29/25 Q1008
Conditions at: NGFU (FUNAFUTI TUVALU , FJ) observed 2000 UTC 25 January 2020
Temperature: 29.0°C (84°F)
Dewpoint: 25.0°C (77°F) [RH = 79%]
Pressure (altimeter): 29.76 inches Hg (1008.0 mb)
Winds: calm
Visibility: 6 or more miles (10+ km)
Ceiling: 11000 feet AGL
Clouds: scattered clouds at 1800 feet AGL
broken clouds at 11000 feet AGL
Weather: no significant weather observed at this time

METAR text: NGFU 251900Z 00000KT 9999 SCT019TCU BKN110 29/26 Q1007
Conditions at: NGFU (FUNAFUTI TUVALU , FJ) observed 1900 UTC 25 January 2020
Temperature: 29.0°C (84°F)
Dewpoint: 26.0°C (79°F) [RH = 84%]
Pressure (altimeter): 29.73 inches Hg (1007.0 mb)
Winds: calm
Visibility: 6 or more miles (10+ km)
Ceiling: 11000 feet AGL
Clouds: scattered clouds at 1900 feet AGL
broken clouds at 11000 feet AGL
Weather: no significant weather observed at this time

METAR text: NGFU 251800Z 21003KT 9999 SCT019TCU BKN110 29/25 Q1007
Conditions at: NGFU (FUNAFUTI TUVALU , FJ) observed 1800 UTC 25 January 2020
Temperature: 29.0°C (84°F)
Dewpoint: 25.0°C (77°F) [RH = 79%]
Pressure (altimeter): 29.73 inches Hg (1007.0 mb)
Winds: from the SSW (210 degrees) at 3 MPH (3 knots; 1.5 m/s)
Visibility: 6 or more miles (10+ km)
Ceiling: 11000 feet AGL
Clouds: scattered clouds at 1900 feet AGL
broken clouds at 11000 feet AGL
Weather: no significant weather observed at this time

METAR text: NGFU 251700Z 22004KT 9999 FEW018TCU SCT020 BKN110 28/25 Q1006
Conditions at: NGFU (FUNAFUTI TUVALU , FJ) observed 1700 UTC 25 January 2020
Temperature: 28.0°C (82°F)
Dewpoint: 25.0°C (77°F) [RH = 84%]
Pressure (altimeter): 29.70 inches Hg (1006.0 mb)
Winds: from the SW (220 degrees) at 5 MPH (4 knots; 2.1 m/s)
Visibility: 6 or more miles (10+ km)
Ceiling: 11000 feet AGL
Clouds: few clouds at 1800 feet AGL
scattered clouds at 2000 feet AGL
broken clouds at 11000 feet AGL
Weather: no significant weather observed at this time

METAR text: NGFU 251600Z VRB02KT 9999 SCT018TCU BKN110 28/25 Q1006
Conditions at: NGFU (FUNAFUTI TUVALU , FJ) observed 1600 UTC 25 January 2020
Temperature: 28.0°C (82°F)
Dewpoint: 25.0°C (77°F) [RH = 84%]
Pressure (altimeter): 29.70 inches Hg (1006.0 mb)
Winds: variable direction winds at 2 MPH (2 knots; 1.0 m/s)
Visibility: 6 or more miles (10+ km)
Ceiling: 11000 feet AGL
Clouds: scattered clouds at 1800 feet AGL
broken clouds at 11000 feet AGL
Weather: no significant weather observed at this time

METAR text: NGFU 251500Z 24005KT 9999 SCT018TCU BKN110 28/25 Q1006
Conditions at: NGFU (FUNAFUTI TUVALU , FJ) observed 1500 UTC 25 January 2020
Temperature: 28.0°C (82°F)
Dewpoint: 25.0°C (77°F) [RH = 84%]
Pressure (altimeter): 29.70 inches Hg (1006.0 mb)
Winds: from the WSW (240 degrees) at 6 MPH (5 knots; 2.6 m/s)
Visibility: 6 or more miles (10+ km)
Ceiling: 11000 feet AGL
Clouds: scattered clouds at 1800 feet AGL
broken clouds at 11000 feet AGL
Weather: no significant weather observed at this time

METAR text: NGFU 251400Z 20003KT 9999 FEW018TCU BKN300 28/25 Q1005
Conditions at: NGFU (FUNAFUTI TUVALU , FJ) observed 1400 UTC 25 January 2020
Temperature: 28.0°C (82°F)
Dewpoint: 25.0°C (77°F) [RH = 84%]
Pressure (altimeter): 29.68 inches Hg (1005.0 mb)
Winds: from the SSW (200 degrees) at 3 MPH (3 knots; 1.5 m/s)
Visibility: 6 or more miles (10+ km)
Ceiling: 30000 feet AGL
Clouds: few clouds at 1800 feet AGL
broken clouds at 30000 feet AGL
Weather: no significant weather observed at this time

METAR text: NGFU 251300Z VRB02KT 9999 FEW018TCU SCT020 BKN300 28/25 Q1006
Conditions at: NGFU (FUNAFUTI TUVALU , FJ) observed 1300 UTC 25 January 2020
Temperature: 28.0°C (82°F)
Dewpoint: 25.0°C (77°F) [RH = 84%]
Pressure (altimeter): 29.70 inches Hg (1006.0 mb)
Winds: variable direction winds at 2 MPH (2 knots; 1.0 m/s)
Visibility: 6 or more miles (10+ km)
Ceiling: 30000 feet AGL
Clouds: few clouds at 1800 feet AGL
scattered clouds at 2000 feet AGL
broken clouds at 30000 feet AGL
Weather: no significant weather observed at this time

METAR text: NGFU 251200Z VRB01KT 9999 FEW020 SCT310 29/26 Q1007
Conditions at: NGFU (FUNAFUTI TUVALU , FJ) observed 1200 UTC 25 January 2020
Temperature: 29.0°C (84°F)
Dewpoint: 26.0°C (79°F) [RH = 84%]
Pressure (altimeter): 29.73 inches Hg (1007.0 mb)
Winds: variable direction winds at 1 MPH (1 knots; 0.5 m/s)
Visibility: 6 or more miles (10+ km)
Ceiling: at least 12,000 feet AGL
Clouds: few clouds at 2000 feet AGL
scattered clouds at 31000 feet AGL
Weather: no significant weather observed at this time

METAR text: NGFU 251100Z 23004KT 9999 FEW018TCU SCT020 28/25 Q1008
Conditions at: NGFU (FUNAFUTI TUVALU , FJ) observed 1100 UTC 25 January 2020
Temperature: 28.0°C (82°F)
Dewpoint: 25.0°C (77°F) [RH = 84%]
Pressure (altimeter): 29.76 inches Hg (1008.0 mb)
Winds: from the SW (230 degrees) at 5 MPH (4 knots; 2.1 m/s)
Visibility: 6 or more miles (10+ km)
Ceiling: at least 12,000 feet AGL
Clouds: few clouds at 1800 feet AGL
scattered clouds at 2000 feet AGL
Weather: no significant weather observed at this time

METAR text: NGFU 251000Z 33003KT 9999 FEW020 BKN300 28/25 Q1008
Conditions at: NGFU (FUNAFUTI TUVALU , FJ) observed 1000 UTC 25 January 2020
Temperature: 28.0°C (82°F)
Dewpoint: 25.0°C (77°F) [RH = 84%]
Pressure (altimeter): 29.76 inches Hg (1008.0 mb)
Winds: from the NNW (330 degrees) at 3 MPH (3 knots; 1.5 m/s)
Visibility: 6 or more miles (10+ km)
Ceiling: 30000 feet AGL
Clouds: few clouds at 2000 feet AGL
broken clouds at 30000 feet AGL
Weather: no significant weather observed at this time

METAR text: NGFU 250900Z 36006KT 9999 FEW018TCU SCT020 BKN300 28/26 Q1007
Conditions at: NGFU (FUNAFUTI TUVALU , FJ) observed 0900 UTC 25 January 2020
Temperature: 28.0°C (82°F)
Dewpoint: 26.0°C (79°F) [RH = 89%]
Pressure (altimeter): 29.73 inches Hg (1007.0 mb)
Winds: from the N (360 degrees) at 7 MPH (6 knots; 3.1 m/s)
Visibility: 6 or more miles (10+ km)
Ceiling: 30000 feet AGL
Clouds: few clouds at 1800 feet AGL
scattered clouds at 2000 feet AGL
broken clouds at 30000 feet AGL
Weather: no significant weather observed at this time

METAR text: NGFU 250800Z 29003KT 9999 SCT020 BKN300 29/25 Q1007
Conditions at: NGFU (FUNAFUTI TUVALU , FJ) observed 0800 UTC 25 January 2020
Temperature: 29.0°C (84°F)
Dewpoint: 25.0°C (77°F) [RH = 79%]
Pressure (altimeter): 29.73 inches Hg (1007.0 mb)
Winds: from the WNW (290 degrees) at 3 MPH (3 knots; 1.5 m/s)
Visibility: 6 or more miles (10+ km)
Ceiling: 30000 feet AGL
Clouds: scattered clouds at 2000 feet AGL
broken clouds at 30000 feet AGL
Weather: no significant weather observed at this time

METAR text: NGFU 250700Z 28004KT 9999 FEW018TCU SCT110 BKN300 29/25 Q1006
Conditions at: NGFU (FUNAFUTI TUVALU , FJ) observed 0700 UTC 25 January 2020
Temperature: 29.0°C (84°F)
Dewpoint: 25.0°C (77°F) [RH = 79%]
Pressure (altimeter): 29.70 inches Hg (1006.0 mb)
Winds: from the W (280 degrees) at 5 MPH (4 knots; 2.1 m/s)
Visibility: 6 or more miles (10+ km)
Ceiling: 30000 feet AGL
Clouds: few clouds at 1800 feet AGL
scattered clouds at 11000 feet AGL
broken clouds at 30000 feet AGL
Weather: no significant weather observed at this time

METAR text: NGFU 250600Z 26005KT 9999 FEW018TCU BKN290 29/25 Q1006
Conditions at: NGFU (FUNAFUTI TUVALU , FJ) observed 0600 UTC 25 January 2020
Temperature: 29.0°C (84°F)
Dewpoint: 25.0°C (77°F) [RH = 79%]
Pressure (altimeter): 29.70 inches Hg (1006.0 mb)
Winds: from the W (260 degrees) at 6 MPH (5 knots; 2.6 m/s)
Visibility: 6 or more miles (10+ km)
Ceiling: 29000 feet AGL
Clouds: few clouds at 1800 feet AGL
broken clouds at 29000 feet AGL
Weather: no significant weather observed at this time

METAR text: NGFU 250500Z 28006KT 9999 FEW018TCU BKN300 30/25 Q1005
Conditions at: NGFU (FUNAFUTI TUVALU , FJ) observed 0500 UTC 25 January 2020
Temperature: 30.0°C (86°F)
Dewpoint: 25.0°C (77°F) [RH = 75%]
Pressure (altimeter): 29.68 inches Hg (1005.0 mb)
Winds: from the W (280 degrees) at 7 MPH (6 knots; 3.1 m/s)
Visibility: 6 or more miles (10+ km)
Ceiling: 30000 feet AGL
Clouds: few clouds at 1800 feet AGL
broken clouds at 30000 feet AGL
Weather: no significant weather observed at this time

METAR text: NGFU 250400Z 31005KT 9999 FEW018TCU BKN300 29/26 Q1005
Conditions at: NGFU (FUNAFUTI TUVALU , FJ) observed 0400 UTC 25 January 2020
Temperature: 29.0°C (84°F)
Dewpoint: 26.0°C (79°F) [RH = 84%]
Pressure (altimeter): 29.68 inches Hg (1005.0 mb)
Winds: from the NW (310 degrees) at 6 MPH (5 knots; 2.6 m/s)
Visibility: 6 or more miles (10+ km)
Ceiling: 30000 feet AGL
Clouds: few clouds at 1800 feet AGL
broken clouds at 30000 feet AGL
Weather: no significant weather observed at this time

METAR text: NGFU 250300Z 28007KT 9999 VCSH FEW016CB SCT018TCU OVC110 31/26 Q1005
Conditions at: NGFU (FUNAFUTI TUVALU , FJ) observed 0300 UTC 25 January 2020
Temperature: 31.0°C (88°F)
Dewpoint: 26.0°C (79°F) [RH = 75%]
Pressure (altimeter): 29.68 inches Hg (1005.0 mb)
Winds: from the W (280 degrees) at 8 MPH (7 knots; 3.6 m/s)
Visibility: 6 or more miles (10+ km)
Ceiling: 11000 feet AGL
Clouds: few clouds at 1600 feet AGL
scattered clouds at 1800 feet AGL
overcast cloud deck at 11000 feet AGL
Weather: VCSH  (showers in vicinity)

METAR text: NGFU 250200Z 24004KT 9999 FEW018TCU SCT110 BKN300 31/25 Q1006
Conditions at: NGFU (FUNAFUTI TUVALU , FJ) observed 0200 UTC 25 January 2020
Temperature: 31.0°C (88°F)
Dewpoint: 25.0°C (77°F) [RH = 71%]
Pressure (altimeter): 29.70 inches Hg (1006.0 mb)
Winds: from the WSW (240 degrees) at 5 MPH (4 knots; 2.1 m/s)
Visibility: 6 or more miles (10+ km)
Ceiling: 30000 feet AGL
Clouds: few clouds at 1800 feet AGL
scattered clouds at 11000 feet AGL
broken clouds at 30000 feet AGL
Weather: no significant weather observed at this time

METAR text: NGFU 250100Z 27006KT 9999 FEW018TCU SCT110 BKN300 31/26 Q1006
Conditions at: NGFU (FUNAFUTI TUVALU , FJ) observed 0100 UTC 25 January 2020
Temperature: 31.0°C (88°F)
Dewpoint: 26.0°C (79°F) [RH = 75%]
Pressure (altimeter): 29.70 inches Hg (1006.0 mb)
Winds: from the W (270 degrees) at 7 MPH (6 knots; 3.1 m/s)
Visibility: 6 or more miles (10+ km)
Ceiling: 30000 feet AGL
Clouds: few clouds at 1800 feet AGL
scattered clouds at 11000 feet AGL
broken clouds at 30000 feet AGL
Weather: no significant weather observed at this time

METAR text: NGFU 250000Z 31008KT 9999 FEW018TCU SCT110 BKN300 31/26 Q1007
Conditions at: NGFU (FUNAFUTI TUVALU , FJ) observed 0000 UTC 25 January 2020
Temperature: 31.0°C (88°F)
Dewpoint: 26.0°C (79°F) [RH = 75%]
Pressure (altimeter): 29.73 inches Hg (1007.0 mb)
Winds: from the NW (310 degrees) at 9 MPH (8 knots; 4.1 m/s)
Visibility: 6 or more miles (10+ km)
Ceiling: 30000 feet AGL
Clouds: few clouds at 1800 feet AGL
scattered clouds at 11000 feet AGL
broken clouds at 30000 feet AGL
Weather: no significant weather observed at this time

METAR text: NGFU 242300Z 34006KT 9999 FEW018TCU SCT110 BKN300 30/26 Q1008
Conditions at: NGFU (FUNAFUTI TUVALU , FJ) observed 2300 UTC 24 January 2020
Temperature: 30.0°C (86°F)
Dewpoint: 26.0°C (79°F) [RH = 79%]
Pressure (altimeter): 29.76 inches Hg (1008.0 mb)
Winds: from the NNW (340 degrees) at 7 MPH (6 knots; 3.1 m/s)
Visibility: 6 or more miles (10+ km)
Ceiling: 30000 feet AGL
Clouds: few clouds at 1800 feet AGL
scattered clouds at 11000 feet AGL
broken clouds at 30000 feet AGL
Weather: no significant weather observed at this time

METAR text: NGFU 242200Z 29007KT 9999 FEW018TCU BKN110 29/26 Q1008
Conditions at: NGFU (FUNAFUTI TUVALU , FJ) observed 2200 UTC 24 January 2020
Temperature: 29.0°C (84°F)
Dewpoint: 26.0°C (79°F) [RH = 84%]
Pressure (altimeter): 29.76 inches Hg (1008.0 mb)
Winds: from the WNW (290 degrees) at 8 MPH (7 knots; 3.6 m/s)
Visibility: 6 or more miles (10+ km)
Ceiling: 11000 feet AGL
Clouds: few clouds at 1800 feet AGL
broken clouds at 11000 feet AGL
Weather: no significant weather observed at this time

Forecast for: NGFU (FUNAFUTI TUVALU , FJ)
Text: TAF NGFU 260513Z 2606/2706 34010KT 9999 -SHRA SCT018 BKN100
Forecast period: 0600 UTC 26 January 2020 to 0600 UTC 27 January 2020
Forecast type: FROM: standard forecast or significant change
Winds: from the NNW (340 degrees) at 12 MPH (10 knots; 5.1 m/s)
Visibility: 6 or more miles 10+ km)
Ceiling: 10000 feet AGL
Clouds: scattered clouds at 1800 feet AGL
broken clouds at 10000 feet AGL
Weather: -SHRA  (light rain showers)
Text: TEMPO 2606/2612 3000 TSRA BKN015 FEW018CB
Forecast period: 0600 to 1200 UTC 26 January 2020
Forecast type: TEMPORARY: The following changes expected for less than half the time period
Visibility: 1.86 miles (2.99 km)
Ceiling: 1500 feet AGL
Clouds: broken clouds at 1500 feet AGL
few clouds at 1800 feet AGL
Weather: TSRA  (rain associated with thunderstorm(s))
Text: PROB40
Forecast period: 1200 UTC 26 January 2020 to 0000 UTC 27 January 2020
Forecast type: TEMPORARY: The following changes expected for less than half the time period
Visibility: 3 miles (5 km)
Ceiling: 1500 feet AGL
Clouds: broken clouds at 1500 feet AGL
few clouds at 1800 feet AGL
Weather: TSRA  (rain associated with thunderstorm(s))